Time;durP1;ratioP1;P1;durP2;ratioP2;P2;SDS_P1;SDS_P2;PMS_P1;PMS_P2;Temp;Humidity;BMP_temperature;BMP_pressure;BME280_temperature;BME280_humidity;BME280_pressure;Samples;Min_cycle;Max_cycle;Signal;HPM_P1;HPM_P2
2021/09/29 00:04:36;;;;;;;7.17;6.67;;;16.50;99.90;;;;;;10444188;28;20308;-84
2021/09/29 00:09:40;;;;;;;7.70;7.00;;;16.50;99.90;;;;;;10461705;28;20205;-84
2021/09/29 00:14:42;;;;;;;7.90;7.23;;;16.50;99.90;;;;;;10445138;28;20316;-84
2021/09/29 00:19:44;;;;;;;7.80;7.20;;;16.50;99.90;;;;;;10464191;28;20197;-84
2021/09/29 00:24:47;;;;;;;7.70;7.20;;;16.50;99.90;;;;;;10460431;28;20221;-84
2021/09/29 00:29:51;;;;;;;8.03;7.43;;;16.50;99.90;;;;;;10446181;28;20296;-85
2021/09/29 00:34:53;;;;;;;8.53;7.90;;;16.50;99.90;;;;;;10463070;28;20221;-84
2021/09/29 00:39:57;;;;;;;8.80;8.00;;;16.50;99.90;;;;;;10442327;28;20685;-85
2021/09/29 00:44:59;;;;;;;8.80;8.00;;;16.50;99.90;;;;;;10466913;28;20194;-83
2021/09/29 00:50:05;;;;;;;8.10;7.43;;;16.50;99.90;;;;;;10439613;28;20211;-84
2021/09/29 00:55:13;;;;;;;8.63;7.97;;;16.40;99.90;;;;;;10456120;28;20688;-84
2021/09/29 01:00:16;;;;;;;8.43;7.73;;;16.40;99.90;;;;;;10452740;28;20259;-85
2021/09/29 01:05:18;;;;;;;9.00;8.30;;;16.30;99.90;;;;;;10454199;28;20247;-85
2021/09/29 01:10:42;;;;;;;8.60;7.50;;;16.30;99.90;;;;;;10454928;28;20679;-85
2021/09/29 01:15:49;;;;;;;10.27;9.43;;;16.20;99.90;;;;;;10459347;28;20217;-84
2021/09/29 01:20:54;;;;;;;9.50;8.70;;;16.30;99.90;;;;;;10420066;28;20221;-84
2021/09/29 01:26:13;;;;;;;7.83;7.30;;;16.30;99.90;;;;;;10438016;28;20232;-84
2021/09/29 01:31:17;;;;;;;9.30;8.50;;;16.20;99.90;;;;;;10454402;28;20240;-84
2021/09/29 01:36:20;;;;;;;9.07;8.30;;;16.20;99.90;;;;;;10456936;28;20271;-85
2021/09/29 01:41:26;;;;;;;9.00;8.30;;;16.20;99.90;;;;;;10458328;28;20301;-85
2021/09/29 01:46:29;;;;;;;9.87;8.97;;;16.20;99.90;;;;;;10447944;28;20212;-85
2021/09/29 01:51:36;;;;;;;9.50;8.80;;;16.10;99.90;;;;;;10448058;28;20221;-84
2021/09/29 01:56:40;;;;;;;10.13;8.93;;;16.10;99.90;;;;;;10442656;28;20229;-84
2021/09/29 02:01:43;;;;;;;9.60;8.80;;;16.20;99.90;;;;;;10442708;28;20228;-84
2021/09/29 02:06:47;;;;;;;9.63;8.73;;;16.20;99.90;;;;;;10439777;28;20288;-85
2021/09/29 02:11:50;;;;;;;9.57;8.70;;;16.30;99.90;;;;;;10439962;28;20225;-84
2021/09/29 02:16:55;;;;;;;9.30;8.50;;;16.30;99.90;;;;;;10440042;28;20701;-84
2021/09/29 02:21:58;;;;;;;9.00;8.37;;;16.40;99.90;;;;;;10441253;28;20225;-85
2021/09/29 02:27:01;;;;;;;8.67;7.97;;;16.40;99.90;;;;;;10446896;28;20193;-83
2021/09/29 02:32:04;;;;;;;9.20;8.40;;;16.40;99.90;;;;;;10439799;28;20707;-84
2021/09/29 02:37:06;;;;;;;9.43;8.63;;;16.40;99.90;;;;;;10442123;28;20295;-83
2021/09/29 02:42:11;;;;;;;8.80;8.00;;;16.40;99.90;;;;;;10440753;28;20225;-84
2021/09/29 02:47:13;;;;;;;9.43;8.60;;;16.40;99.90;;;;;;10441927;28;20225;-83
2021/09/29 02:52:15;;;;;;;8.87;8.13;;;16.40;99.90;;;;;;10457740;28;20304;-82
2021/09/29 02:57:18;;;;;;;8.50;7.77;;;16.50;99.90;;;;;;10453476;28;20663;-83
2021/09/29 03:02:21;;;;;;;8.17;7.37;;;16.50;99.90;;;;;;10440392;28;20711;-85
2021/09/29 03:07:23;;;;;;;7.83;7.03;;;16.50;99.90;;;;;;10441062;28;20585;-85
2021/09/29 03:12:26;;;;;;;8.40;7.60;;;16.50;99.90;;;;;;10451432;28;20747;-84
2021/09/29 03:17:29;;;;;;;8.80;8.00;;;16.50;99.90;;;;;;10441102;28;20201;-84
2021/09/29 03:22:32;;;;;;;8.07;7.37;;;16.40;99.90;;;;;;10441045;28;20321;-85
2021/09/29 03:27:35;;;;;;;8.67;7.97;;;16.30;99.90;;;;;;10441627;28;20208;-85
2021/09/29 03:32:37;;;;;;;7.90;7.20;;;16.20;99.90;;;;;;10441399;28;20708;-84
2021/09/29 03:37:40;;;;;;;8.53;7.30;;;16.20;99.90;;;;;;10425866;28;20228;-85
2021/09/29 03:42:46;;;;;;;8.80;8.10;;;16.20;99.90;;;;;;10458352;28;20603;-84
2021/09/29 03:47:48;;;;;;;6.20;5.70;;;16.20;99.90;;;;;;10442655;28;20201;-84
2021/09/29 03:52:50;;;;;;;7.27;6.57;;;16.20;99.90;;;;;;10459651;28;20312;-85
2021/09/29 03:57:54;;;;;;;7.10;6.60;;;16.20;99.90;;;;;;10463308;28;20185;-84
2021/09/29 04:02:56;;;;;;;8.80;8.00;;;16.20;99.90;;;;;;10447921;28;20221;-85
2021/09/29 04:07:58;;;;;;;7.47;6.97;;;16.20;99.90;;;;;;10443070;28;20216;-85
2021/09/29 04:13:02;;;;;;;6.47;5.87;;;16.30;99.90;;;;;;10459032;28;20660;-84
2021/09/29 04:18:04;;;;;;;6.63;6.13;;;16.30;99.90;;;;;;10463810;28;20280;-85
2021/09/29 04:23:09;;;;;;;6.10;5.70;;;16.40;99.90;;;;;;10457666;28;20217;-84
2021/09/29 04:28:12;;;;;;;6.90;6.30;;;16.40;99.90;;;;;;10441104;28;20255;-85
2021/09/29 04:33:15;;;;;;;5.33;4.83;;;16.30;99.90;;;;;;10440639;28;20316;-85
2021/09/29 04:38:17;;;;;;;6.03;5.53;;;16.30;99.90;;;;;;10442186;28;20201;-83
2021/09/29 04:43:21;;;;;;;6.67;6.17;;;16.30;99.90;;;;;;10425200;28;20228;-84
2021/09/29 04:48:23;;;;;;;6.23;5.63;;;16.30;99.90;;;;;;10441081;28;20672;-85
2021/09/29 04:53:25;;;;;;;6.40;5.90;;;16.20;99.90;;;;;;10466038;28;20206;-85
2021/09/29 04:58:29;;;;;;;6.27;4.73;;;16.20;99.90;;;;;;10452766;28;20213;-84
2021/09/29 05:03:33;;;;;;;7.43;6.53;;;16.20;99.90;;;;;;10452564;28;20214;-83
2021/09/29 05:08:36;;;;;;;5.90;4.67;;;16.10;99.90;;;;;;10452161;28;20255;-83
2021/09/29 05:13:39;;;;;;;5.27;4.87;;;16.10;99.90;;;;;;10436467;28;20232;-83
2021/09/29 05:18:41;;;;;;;9.23;4.93;;;16.00;99.90;;;;;;10435789;28;20303;-83
2021/09/29 05:23:43;;;;;;;5.43;5.00;;;16.00;99.90;;;;;;10453722;28;20268;-83
2021/09/29 05:28:50;;;;;;;8.30;4.63;;;16.10;99.90;;;;;;10436929;28;20205;-84
2021/09/29 05:33:52;;;;;;;5.87;5.27;;;16.00;99.90;;;;;;10421462;28;20312;-85
2021/09/29 05:38:54;;;;;;;5.30;4.90;;;16.00;99.90;;;;;;10454596;28;20201;-83
2021/09/29 05:43:57;;;;;;;4.57;4.27;;;16.00;99.90;;;;;;10455593;28;20218;-83
2021/09/29 05:49:00;;;;;;;5.10;4.37;;;16.00;99.90;;;;;;10437542;28;20197;-84
2021/09/29 05:54:02;;;;;;;5.50;5.10;;;16.00;99.90;;;;;;10454609;28;20853;-85
2021/09/29 05:59:05;;;;;;;6.80;5.17;;;15.90;99.90;;;;;;10438982;28;20205;-84
2021/09/29 06:04:09;;;;;;;6.23;5.33;;;15.90;99.90;;;;;;10443187;28;20225;-84
2021/09/29 06:09:11;;;;;;;5.27;4.77;;;16.00;99.90;;;;;;10448999;28;20213;-84
2021/09/29 06:14:15;;;;;;;4.83;4.53;;;16.00;99.90;;;;;;10444399;28;20221;-84
2021/09/29 06:19:17;;;;;;;6.50;4.73;;;16.00;99.90;;;;;;10444199;28;20205;-84
2021/09/29 06:24:20;;;;;;;4.40;4.10;;;16.10;99.90;;;;;;10444140;28;20241;-84
2021/09/29 06:29:23;;;;;;;4.93;4.43;;;16.20;99.90;;;;;;10460788;28;20240;-84
2021/09/29 06:34:25;;;;;;;10.23;5.00;;;16.40;99.90;;;;;;10444551;28;20260;-83
2021/09/29 06:39:28;;;;;;;8.77;4.87;;;16.50;99.90;;;;;;10476819;28;20221;-84
2021/09/29 06:44:31;;;;;;;5.33;4.83;;;16.60;99.90;;;;;;10460479;28;20228;-84
2021/09/29 06:49:33;;;;;;;4.53;4.23;;;16.50;99.90;;;;;;10461927;28;20664;-85
2021/09/29 06:54:35;;;;;;;4.90;4.50;;;16.50;99.90;;;;;;10459149;28;20316;-83
2021/09/29 06:59:39;;;;;;;4.87;3.87;;;16.50;99.90;;;;;;10441861;28;20213;-83
2021/09/29 07:04:42;;;;;;;4.17;3.77;;;16.40;99.90;;;;;;10458279;28;20513;-85
2021/09/29 07:09:44;;;;;;;5.10;4.60;;;16.40;99.90;;;;;;10459081;28;20305;-85
2021/09/29 07:14:47;;;;;;;4.70;4.30;;;16.40;99.90;;;;;;10441465;28;20221;-83
2021/09/29 07:19:57;;;;;;;5.13;4.47;;;16.40;99.90;;;;;;10439725;28;20205;-84
2021/09/29 07:24:59;;;;;;;4.83;4.43;;;16.40;99.90;;;;;;10458560;28;20228;-85
2021/09/29 07:30:05;;;;;;;4.40;4.00;;;16.40;99.90;;;;;;10460337;28;20251;-84
2021/09/29 07:35:08;;;;;;;5.03;4.10;;;16.50;99.90;;;;;;10443386;28;20233;-84
2021/09/29 07:40:12;;;;;;;3.70;3.20;;;16.50;99.90;;;;;;10443798;28;20581;-84
2021/09/29 07:45:17;;;;;;;4.57;3.20;;;16.50;99.90;;;;;;10448054;28;20197;-84
2021/09/29 07:50:20;;;;;;;3.23;3.00;;;16.60;99.90;;;;;;10448109;28;20224;-84
2021/09/29 07:55:22;;;;;;;2.60;2.40;;;16.80;99.90;;;;;;10449926;28;20225;-84
2021/09/29 08:00:25;;;;;;;3.33;3.00;;;16.90;99.90;;;;;;10469003;28;20221;-84
2021/09/29 08:05:30;;;;;;;3.33;2.87;;;17.00;99.90;;;;;;10455911;28;20193;-84
2021/09/29 08:10:32;;;;;;;3.03;2.83;;;17.00;99.90;;;;;;10469750;28;20225;-84
2021/09/29 08:15:36;;;;;;;5.27;2.40;;;17.10;99.90;;;;;;10464333;28;20213;-83
2021/09/29 08:27:18;;;;;;;3.77;2.33;;;17.20;99.90;;;;;;10440125;28;20204;-84
2021/09/29 08:32:38;;;;;;;4.70;2.53;;;17.20;99.90;;;;;;10441188;28;20561;-83
2021/09/29 09:19:04;;;;;;;2.10;2.00;;;17.90;99.90;;;;;;10459566;28;20200;-84
2021/09/29 09:24:14;;;;;;;2.13;1.93;;;18.10;99.90;;;;;;10440343;28;20240;-84
2021/09/29 09:29:18;;;;;;;3.03;2.30;;;18.40;99.90;;;;;;10430311;28;20228;-84
2021/09/29 09:34:20;;;;;;;2.27;1.87;;;18.60;99.90;;;;;;10401463;28;20253;-84
2021/09/29 09:39:25;;;;;;;2.27;2.07;;;18.60;99.90;;;;;;10402623;28;20854;-84
2021/09/29 09:44:30;;;;;;;1.93;1.63;;;18.80;99.90;;;;;;10415623;28;20217;-84
2021/09/29 09:49:43;;;;;;;2.07;1.97;;;18.90;99.40;;;;;;10407922;28;20634;-85
2021/09/29 09:54:46;;;;;;;2.23;2.03;;;19.00;99.90;;;;;;10407495;28;20222;-84
2021/09/29 09:59:51;;;;;;;3.07;2.73;;;19.10;99.90;;;;;;10438309;28;20232;-84
2021/09/29 10:04:53;;;;;;;4.20;2.90;;;19.30;99.50;;;;;;10466072;28;20252;-84
2021/09/29 10:09:59;;;;;;;2.23;2.03;;;19.30;99.40;;;;;;10470932;28;20198;-84
2021/09/29 10:15:31;;;;;;;2.10;1.80;;;19.30;99.70;;;;;;10462512;28;20580;-83
2021/09/29 10:26:21;;;;;;;2.13;1.40;;;19.10;99.90;;;;;;10460772;28;20273;-83
2021/09/29 10:31:37;;;;;;;3.53;2.07;;;19.00;98.70;;;;;;10459692;28;20251;-84
2021/09/29 10:36:49;;;;;;;2.10;1.60;;;19.00;98.00;;;;;;10461601;28;20247;-84
2021/09/29 10:42:00;;;;;;;2.00;1.80;;;19.00;98.20;;;;;;10458390;28;20546;-84
2021/09/29 10:47:15;;;;;;;4.17;1.80;;;19.20;98.20;;;;;;10460293;28;20197;-84
2021/09/29 10:52:46;;;;;;;3.60;1.97;;;19.20;97.90;;;;;;10458248;28;20620;-83
2021/09/29 11:30:23;;;;;;;4.30;2.10;;;19.80;97.00;;;;;;10459026;28;20315;-84
2021/09/29 11:35:41;;;;;;;2.23;2.03;;;19.70;97.50;;;;;;10441851;28;20247;-85
2021/09/29 12:08:05;;;;;;;2.13;1.90;;;20.20;95.00;;;;;;10461401;28;20297;-84
2021/09/29 12:13:08;;;;;;;2.80;1.90;;;20.30;94.90;;;;;;10425021;28;20340;-84
2021/09/29 12:18:11;;;;;;;2.10;2.00;;;20.40;93.60;;;;;;10404551;28;20712;-84
2021/09/29 12:23:16;;;;;;;1.83;1.70;;;20.30;93.80;;;;;;10385503;28;20701;-83
2021/09/29 12:28:32;;;;;;;2.13;1.90;;;20.20;94.40;;;;;;10382743;28;20635;-85
2021/09/29 12:33:46;;;;;;;1.77;1.60;;;20.00;93.50;;;;;;10401373;28;20280;-84
2021/09/29 12:38:52;;;;;;;2.13;2.00;;;19.90;94.00;;;;;;10385676;28;20257;-84
2021/09/29 12:44:01;;;;;;;2.40;2.20;;;19.90;94.30;;;;;;10402930;28;20209;-83
2021/09/29 12:49:10;;;;;;;2.20;2.10;;;19.90;93.80;;;;;;10386173;28;20256;-84
2021/09/29 12:54:18;;;;;;;4.27;1.77;;;19.90;93.60;;;;;;10386373;28;20241;-83
2021/09/29 12:59:20;;;;;;;6.03;2.20;;;20.00;94.40;;;;;;10406795;28;20221;-83
2021/09/29 13:04:22;;;;;;;2.23;2.03;;;20.00;93.30;;;;;;10396526;28;20218;-83
2021/09/29 13:09:26;;;;;;;4.50;2.10;;;20.00;94.30;;;;;;10402347;28;20223;-84
2021/09/29 13:14:29;;;;;;;2.33;2.10;;;20.10;93.70;;;;;;10420628;28;20229;-83
2021/09/29 13:19:33;;;;;;;2.20;1.90;;;20.10;93.90;;;;;;10420999;28;20287;-84
2021/09/29 13:24:51;;;;;;;3.03;1.60;;;20.10;95.10;;;;;;10422275;28;20239;-84
2021/09/29 13:36:33;;;;;;;1.80;1.70;;;20.20;94.60;;;;;;10401805;28;20228;-84
2021/09/29 13:46:09;;;;;;;4.13;2.00;;;20.00;98.00;;;;;;2955779;26;20235;-84
2021/09/29 13:51:12;;;;;;;2.40;1.73;;;19.70;99.90;;;;;;10427850;28;20220;-84
2021/09/29 13:56:16;;;;;;;2.57;1.90;;;19.40;99.90;;;;;;10461159;28;20688;-85
2021/09/29 14:33:24;;;;;;;3.23;1.90;;;18.20;99.90;;;;;;10468126;28;20224;-86
2021/09/29 14:38:26;;;;;;;1.60;1.50;;;18.20;99.90;;;;;;10468532;28;20227;-87
2021/09/29 14:43:28;;;;;;;1.33;1.23;;;17.90;99.90;;;;;;10483909;28;20209;-86
2021/09/29 14:48:32;;;;;;;1.50;1.40;;;17.70;99.90;;;;;;10502356;28;20740;-86
2021/09/29 14:53:34;;;;;;;1.40;1.33;;;17.50;99.90;;;;;;10467520;28;20307;-85
2021/09/29 14:58:38;;;;;;;2.50;1.40;;;17.30;99.90;;;;;;10468551;28;20286;-86
2021/09/29 15:03:42;;;;;;;1.30;1.20;;;17.20;99.90;;;;;;10501415;28;20217;-85
2021/09/29 15:08:44;;;;;;;1.93;1.30;;;17.20;99.90;;;;;;10502865;28;20200;-85
2021/09/29 15:13:50;;;;;;;1.33;1.33;;;17.10;99.90;;;;;;10500779;28;20204;-84
2021/09/29 15:19:04;;;;;;;2.50;1.33;;;17.00;99.90;;;;;;10521007;28;20220;-85
2021/09/29 15:24:22;;;;;;;1.57;1.47;;;17.00;99.90;;;;;;10483597;28;20220;-84
2021/09/29 19:42:52;;;;;;;1.87;1.77;;;15.10;99.90;;;;;;10495680;23;20247;-84
2021/09/29 19:47:58;;;;;;;2.10;1.90;;;15.00;99.90;;;;;;10435069;28;20201;-84
2021/09/29 20:09:03;;;;;;;2.10;2.00;;;14.90;99.90;;;;;;10434908;28;20197;-84
2021/09/29 20:14:10;;;;;;;1.73;1.50;;;15.00;99.90;;;;;;10434509;28;20732;-84
2021/09/29 20:19:12;;;;;;;2.60;1.60;;;15.00;99.90;;;;;;10438663;28;20190;-85
2021/09/29 20:24:14;;;;;;;1.73;1.60;;;15.00;99.90;;;;;;10458735;28;20224;-84
2021/09/29 20:29:19;;;;;;;1.73;1.63;;;15.00;99.90;;;;;;10442515;28;20204;-84
2021/09/29 20:45:04;;;;;;;1.80;1.70;;;15.10;99.90;;;;;;10459344;28;20216;-84
2021/09/29 20:50:07;;;;;;;1.70;1.60;;;15.00;99.90;;;;;;10441222;28;20673;-84
2021/09/29 20:55:10;;;;;;;2.40;2.10;;;15.00;99.90;;;;;;10459206;28;20688;-84
2021/09/29 21:00:15;;;;;;;2.60;1.77;;;14.90;99.90;;;;;;10449250;28;20240;-84
2021/09/29 21:05:17;;;;;;;2.57;1.50;;;14.90;99.90;;;;;;10417258;28;20213;-84
2021/09/29 21:10:23;;;;;;;6.83;1.90;;;14.90;99.90;;;;;;10415742;28;20198;-84
2021/09/29 21:15:36;;;;;;;2.67;1.90;;;14.80;99.90;;;;;;10398461;28;20237;-84
2021/09/29 21:20:44;;;;;;;2.03;1.57;;;14.80;99.90;;;;;;10415429;28;20241;-84
2021/09/29 21:25:47;;;;;;;3.07;2.07;;;14.80;99.90;;;;;;10415179;28;20182;-84
2021/09/29 21:30:52;;;;;;;2.97;2.20;;;14.80;99.90;;;;;;10411334;28;20316;-84
2021/09/29 21:35:54;;;;;;;1.93;1.83;;;14.70;99.90;;;;;;10462073;28;20189;-84
2021/09/29 21:41:13;;;;;;;3.43;1.90;;;14.70;99.90;;;;;;10464379;28;20217;-84
2021/09/29 21:46:37;;;;;;;1.80;1.70;;;14.70;99.90;;;;;;10462085;28;20272;-84
2021/09/29 22:18:45;;;;;;;2.40;2.20;;;14.60;99.90;;;;;;10384181;28;20293;-84
2021/09/29 22:24:18;;;;;;;2.40;2.20;;;14.60;99.90;;;;;;10431618;28;20224;-85
2021/09/29 23:06:44;;;;;;;2.00;1.90;;;14.50;99.90;;;;;;10452102;28;20193;-84
2021/09/29 23:11:55;;;;;;;2.10;2.00;;;14.40;99.90;;;;;;10452760;28;20225;-84
2021/09/29 23:22:27;;;;;;;3.37;2.37;;;14.30;99.90;;;;;;10453095;28;20236;-84
2021/09/29 23:32:49;;;;;;;2.37;1.80;;;14.20;99.90;;;;;;10453960;28;20235;-84
2021/09/29 23:37:53;;;;;;;1.93;1.70;;;14.10;99.90;;;;;;10455198;28;20264;-84
2021/09/29 23:42:57;;;;;;;2.20;2.00;;;14.10;99.90;;;;;;10437678;28;20225;-84
2021/09/29 23:47:59;;;;;;;3.23;2.00;;;14.10;99.90;;;;;;10453300;28;20204;-84
2021/09/29 23:53:03;;;;;;;5.20;1.97;;;14.10;99.90;;;;;;10453536;28;20231;-84
2021/09/29 23:58:05;;;;;;;2.03;1.77;;;14.00;99.90;;;;;;10443720;28;20196;-84
